createdAt,value
2018-07-24T00:03:33.166Z,100251.48
2018-07-24T00:08:36.722Z,100258.26
2018-07-24T00:13:40.276Z,100260.39
2018-07-24T00:18:43.936Z,100255.61
2018-07-24T00:23:47.478Z,100264.78
2018-07-24T00:28:51.054Z,100261.27
2018-07-24T00:33:54.982Z,100254.84
2018-07-24T00:38:58.528Z,100256.33
2018-07-24T00:44:02.095Z,100254.13
2018-07-24T00:49:05.662Z,100248.81
2018-07-24T00:54:09.331Z,100245.97
2018-07-24T00:59:12.861Z,100241.38
2018-07-24T01:04:16.421Z,100240.95
2018-07-24T01:09:20.070Z,100238.98
2018-07-24T01:14:23.710Z,100231.11
2018-07-24T01:19:27.335Z,100235.66
2018-07-24T01:24:31.125Z,100233.05
2018-07-24T01:29:34.677Z,100237.73
2018-07-24T01:34:38.324Z,100233.55
2018-07-24T01:39:41.918Z,100232.33
2018-07-24T01:44:45.601Z,100241.04
2018-07-24T01:49:49.191Z,100237.84
2018-07-24T01:54:52.807Z,100236.72
2018-07-24T01:59:56.414Z,100233.80
2018-07-24T02:05:00.000Z,100241.48
2018-07-24T02:10:05.507Z,100244.14
2018-07-24T02:15:09.282Z,100242.30
2018-07-24T02:20:12.900Z,100244.19
2018-07-24T02:25:16.489Z,100243.84
2018-07-24T02:30:20.136Z,100236.53
2018-07-24T02:35:23.634Z,100236.67
2018-07-24T02:40:27.187Z,100237.25
2018-07-24T02:45:30.835Z,100246.64
2018-07-24T02:50:34.370Z,100243.27
2018-07-24T02:55:37.910Z,100239.45
2018-07-24T03:00:41.522Z,100240.69
2018-07-24T03:05:45.123Z,100245.64
2018-07-24T03:10:48.747Z,100245.30
2018-07-24T03:15:52.298Z,100247.19
2018-07-24T03:20:56.088Z,100248.86
2018-07-24T03:26:03.816Z,100240.37
2018-07-24T03:31:07.362Z,100243.05
2018-07-24T03:36:10.905Z,100250.39
2018-07-24T03:41:14.454Z,100251.12
2018-07-24T03:46:18.619Z,100252.17
2018-07-24T03:51:22.242Z,100251.16
2018-07-24T03:56:25.938Z,100253.03
2018-07-24T04:01:29.661Z,100250.18
2018-07-24T04:06:33.170Z,100257.02
2018-07-24T04:11:37.262Z,100251.03
2018-07-24T04:16:40.964Z,100253.89
2018-07-24T04:21:45.354Z,100265.55
2018-07-24T04:26:49.078Z,100253.77
2018-07-24T04:31:52.854Z,100254.50
2018-07-24T04:36:57.163Z,100253.52
2018-07-24T04:42:02.007Z,100260.35
2018-07-24T04:47:05.683Z,100257.70
2018-07-24T04:52:09.326Z,100263.59
2018-07-24T04:57:13.018Z,100263.86
2018-07-24T05:02:16.981Z,100260.48
2018-07-24T05:07:20.760Z,100262.76
2018-07-24T05:12:24.587Z,100262.34
2018-07-24T05:17:28.292Z,100258.23
2018-07-24T05:22:32.674Z,100262.26
2018-07-24T05:27:36.597Z,100260.35
2018-07-24T05:32:40.520Z,100264.77
2018-07-24T05:37:44.135Z,100271.92
2018-07-24T05:42:48.219Z,100267.52
2018-07-24T05:47:51.851Z,100271.20
2018-07-24T05:52:55.657Z,100275.52
2018-07-24T05:57:59.435Z,100270.13
2018-07-24T06:03:03.042Z,100276.11
2018-07-24T06:08:09.279Z,100282.75
2018-07-24T06:13:13.798Z,100283.19
2018-07-24T06:18:19.752Z,100286.25
2018-07-24T06:23:24.467Z,100281.13
2018-07-24T06:44:52.446Z,100283.03
2018-07-24T06:49:55.985Z,100282.27
2018-07-24T06:54:59.676Z,100276.42
2018-07-24T07:00:17.644Z,100271.36
2018-07-24T07:05:21.296Z,100274.41
2018-07-24T07:10:25.332Z,100271.76
2018-07-24T07:15:28.946Z,100272.66
2018-07-24T07:20:33.354Z,100275.92
2018-07-24T07:25:37.199Z,100270.28
2018-07-24T07:30:40.844Z,100274.68
2018-07-24T07:35:44.389Z,100272.56
2018-07-24T07:40:48.159Z,100258.49
2018-07-24T07:45:51.828Z,100251.48
2018-07-24T07:50:55.688Z,100252.30
2018-07-24T07:56:00.110Z,100244.42
2018-07-24T08:01:03.815Z,100252.30
2018-07-24T08:06:07.806Z,100252.03
2018-07-24T08:11:11.965Z,100237.63
2018-07-24T08:16:16.075Z,100240.59
2018-07-24T08:21:19.790Z,100237.56
2018-07-24T08:26:23.479Z,100236.16
2018-07-24T08:31:27.101Z,100228.06
2018-07-24T08:36:30.868Z,100233.41
2018-07-24T08:41:34.499Z,100224.76
2018-07-24T08:46:39.253Z,100216.77
2018-07-24T08:51:42.765Z,100214.69
2018-07-24T08:56:46.495Z,100216.48
2018-07-24T09:01:50.219Z,100224.15
2018-07-24T09:06:54.839Z,100213.29
2018-07-24T09:11:59.315Z,100212.23
2018-07-24T09:17:03.404Z,100212.86
2018-07-24T09:22:08.368Z,100210.05
2018-07-24T09:27:12.276Z,100216.93
2018-07-24T09:32:16.435Z,100206.41
2018-07-24T09:37:20.110Z,100205.22
2018-07-24T09:42:23.674Z,100201.02
2018-07-24T09:47:27.759Z,100196.47
2018-07-24T09:52:31.445Z,100189.91
2018-07-24T09:57:34.945Z,100195.06
2018-07-24T10:02:39.040Z,100190.89
2018-07-24T10:07:43.225Z,100183.78
2018-07-24T10:12:47.206Z,100180.75
2018-07-24T10:17:51.930Z,100178.38
2018-07-24T10:22:56.225Z,100169.50
2018-07-24T10:28:00.361Z,100162.48
2018-07-24T10:33:04.775Z,100164.09
2018-07-24T10:38:08.970Z,100158.03
2018-07-24T10:43:13.319Z,100151.61
2018-07-24T10:48:19.682Z,100157.13
2018-07-24T10:53:23.934Z,100139.91
2018-07-24T10:58:28.368Z,100139.90
2018-07-24T11:03:32.860Z,100133.98
2018-07-24T11:08:37.086Z,100125.27
2018-07-24T11:13:41.362Z,100120.72
2018-07-24T11:18:45.889Z,100120.50
2018-07-24T11:23:50.244Z,100115.66
2018-07-24T11:28:54.366Z,100104.26
2018-07-24T11:33:58.499Z,100104.35
2018-07-24T11:39:02.573Z,100098.80
2018-07-24T11:44:08.219Z,100086.38
2018-07-24T11:49:12.534Z,100088.62
2018-07-24T11:54:17.584Z,100078.94
2018-07-24T11:59:22.201Z,100074.13
2018-07-24T12:04:26.181Z,100076.85
2018-07-24T12:09:30.251Z,100077.52
2018-07-24T12:14:37.831Z,100073.59
2018-07-24T12:19:43.009Z,100065.70
2018-07-24T12:24:47.129Z,100061.28
2018-07-24T12:29:51.412Z,100049.44
2018-07-24T12:34:57.585Z,100049.25
2018-07-24T12:40:07.353Z,100042.73
2018-07-24T12:45:11.689Z,100033.00
2018-07-24T12:50:16.540Z,100040.65
2018-07-24T12:55:22.067Z,100035.31
2018-07-24T13:00:26.365Z,100026.98
2018-07-24T13:05:31.373Z,100020.97
2018-07-24T13:10:35.368Z,100010.20
2018-07-24T13:15:39.753Z,100014.58
2018-07-24T13:20:43.746Z,100011.38
2018-07-24T13:25:47.563Z,100013.81
2018-07-24T13:30:51.588Z,100010.03
2018-07-24T13:35:55.570Z,99993.30
2018-07-24T13:41:00.079Z,99981.13
2018-07-24T13:46:04.124Z,99992.65
2018-07-24T13:51:08.917Z,99985.89
2018-07-24T13:56:14.018Z,99976.45
2018-07-24T14:01:18.038Z,99972.44
2018-07-24T14:06:22.276Z,99974.77
2018-07-24T14:11:26.262Z,99975.46
2018-07-24T14:16:30.063Z,99975.83
2018-07-24T14:21:33.929Z,99973.16
2018-07-24T14:26:37.646Z,99964.89
2018-07-24T14:31:42.020Z,99956.48
2018-07-24T14:36:46.333Z,99949.73
2018-07-24T14:41:51.194Z,99950.83
2018-07-24T14:46:55.507Z,99939.30
2018-07-24T14:52:00.583Z,99932.98
2018-07-24T14:57:04.472Z,99929.55
2018-07-24T15:02:08.607Z,99928.17
2018-07-24T15:07:13.158Z,99923.83
2018-07-24T15:12:17.336Z,99922.84
2018-07-24T15:17:22.538Z,99917.23
2018-07-24T15:22:26.841Z,99919.38
2018-07-24T15:27:30.900Z,99921.92
2018-07-24T15:32:35.588Z,99914.78
2018-07-24T15:37:39.531Z,99909.45
2018-07-24T15:42:43.342Z,99907.58
2018-07-24T15:47:47.721Z,99907.34
2018-07-24T15:52:51.785Z,99895.03
2018-07-24T15:57:55.931Z,99897.80
2018-07-24T16:03:00.512Z,99899.41
2018-07-24T16:08:06.121Z,99899.70
2018-07-24T16:13:10.302Z,99900.95
2018-07-24T16:18:15.637Z,99894.72
2018-07-24T16:23:19.874Z,99887.66
2018-07-24T16:28:25.322Z,99885.20
2018-07-24T16:33:29.756Z,99878.48
2018-07-24T16:38:34.556Z,99881.66
2018-07-24T16:43:38.797Z,99881.19
2018-07-24T16:48:43.462Z,99876.75
2018-07-24T16:53:47.709Z,99874.19
2018-07-24T16:58:51.755Z,99879.20
2018-07-24T17:03:56.815Z,99875.28
2018-07-24T17:09:01.477Z,99883.56
2018-07-24T17:14:06.890Z,99878.87
2018-07-24T17:19:14.917Z,99883.82
2018-07-24T17:24:20.363Z,99875.52
2018-07-24T17:29:24.779Z,99875.59
2018-07-24T17:34:29.501Z,99883.38
2018-07-24T17:39:33.835Z,99880.83
2018-07-24T17:44:37.876Z,99884.76
2018-07-24T17:49:43.019Z,99890.13
2018-07-24T17:54:47.572Z,99885.63
2018-07-24T17:59:52.174Z,99894.28
2018-07-24T18:04:56.496Z,99900.43
2018-07-24T18:15:13.097Z,99904.22
2018-07-24T18:20:17.274Z,99903.76
2018-07-24T18:25:21.782Z,99911.41
2018-07-24T18:30:26.161Z,99907.72
2018-07-24T18:35:31.586Z,99913.73
2018-07-24T18:40:35.660Z,99906.88
2018-07-24T18:45:40.087Z,99914.71
2018-07-24T18:50:44.586Z,99917.72
2018-07-24T18:55:49.810Z,99922.61
2018-07-24T19:00:54.103Z,99921.73
2018-07-24T19:05:58.483Z,99926.40
2018-07-24T19:11:02.894Z,99922.38
2018-07-24T19:16:08.730Z,99934.94
2018-07-24T19:21:13.634Z,99935.30
2018-07-24T19:26:17.722Z,99940.90
2018-07-24T19:31:22.028Z,99941.84
2018-07-24T19:36:26.096Z,99944.66
2018-07-24T19:41:30.158Z,99949.28
2018-07-24T19:46:34.223Z,99947.11
2018-07-24T19:51:38.566Z,99958.62
2018-07-24T19:56:42.383Z,99958.95
2018-07-24T20:01:46.817Z,99967.64
2018-07-24T20:06:50.898Z,99970.09
2018-07-24T20:11:55.772Z,99966.08
2018-07-24T20:16:59.914Z,99966.71
2018-07-24T20:22:04.934Z,99973.19
2018-07-24T20:27:08.957Z,99979.13
2018-07-24T20:32:13.540Z,99985.85
2018-07-24T20:37:17.530Z,99983.23
2018-07-24T20:42:21.498Z,99982.03
2018-07-24T20:47:25.206Z,99985.30
2018-07-24T20:52:29.106Z,99988.87
2018-07-24T20:57:32.657Z,99991.63
2018-07-24T21:02:36.615Z,99990.44
2018-07-24T21:07:40.178Z,99987.41
2018-07-24T21:12:44.839Z,99991.97
2018-07-24T21:17:48.539Z,99991.08
2018-07-24T21:22:52.987Z,99988.64
2018-07-24T21:27:57.141Z,99987.69
2018-07-24T21:33:00.813Z,99991.94
2018-07-24T21:38:04.513Z,99991.46
2018-07-24T21:43:08.039Z,99996.28
2018-07-24T21:48:11.789Z,99994.41
2018-07-24T21:53:15.846Z,100000.33
2018-07-24T21:58:19.926Z,99997.84
2018-07-24T22:03:23.911Z,100007.92
2018-07-24T22:08:28.146Z,100011.38
2018-07-24T22:13:32.600Z,100009.41
2018-07-24T22:18:36.999Z,100006.96
2018-07-24T22:23:41.174Z,100007.78
2018-07-24T22:28:44.722Z,100005.05
2018-07-24T22:33:48.513Z,100014.42
2018-07-24T22:38:52.724Z,100012.95
2018-07-24T22:43:56.235Z,100021.36
2018-07-24T22:48:59.784Z,100023.27
2018-07-24T22:54:03.654Z,100016.41
2018-07-24T22:59:07.299Z,100021.68
2018-07-24T23:04:11.164Z,100018.58
2018-07-24T23:09:14.754Z,100018.16
2018-07-24T23:14:18.316Z,100021.69
2018-07-24T23:19:22.263Z,100027.63
2018-07-24T23:24:25.988Z,100025.83
2018-07-24T23:29:29.951Z,100026.92
2018-07-24T23:34:33.960Z,100028.89
2018-07-24T23:39:37.871Z,100028.08
2018-07-24T23:44:41.493Z,100028.34
2018-07-24T23:49:45.443Z,100029.75
2018-07-24T23:54:49.122Z,100033.77
2018-07-24T23:59:52.867Z,100031.16
